createdAt,value
2018-09-01T00:07:09.075Z,27.9
2018-09-01T00:17:08.314Z,27.9
2018-09-01T00:27:07.603Z,27.9
2018-09-01T00:37:06.797Z,27.9
2018-09-01T00:47:06.038Z,27.9
2018-09-01T00:57:05.274Z,27.9
2018-09-01T01:07:04.514Z,27.9
2018-09-01T01:17:03.755Z,27.8
2018-09-01T01:27:02.995Z,27.8
2018-09-01T01:37:02.233Z,27.8
2018-09-01T01:47:01.473Z,27.8
2018-09-01T01:57:00.763Z,27.8
2018-09-01T02:06:59.956Z,27.8
2018-09-01T02:16:59.200Z,27.8
2018-09-01T02:26:58.431Z,27.8
2018-09-01T02:36:57.678Z,27.7
2018-09-01T02:46:56.912Z,27.7
2018-09-01T02:56:56.151Z,27.7
2018-09-01T03:06:55.389Z,27.7
2018-09-01T03:16:54.626Z,27.7
2018-09-01T03:26:53.866Z,27.7
2018-09-01T03:36:53.107Z,27.7
2018-09-01T03:46:52.347Z,27.7
2018-09-01T03:56:51.590Z,27.6
2018-09-01T04:06:50.825Z,27.6
2018-09-01T04:16:50.064Z,27.6
2018-09-01T04:26:49.304Z,27.6
2018-09-01T04:36:48.544Z,27.6
2018-09-01T04:46:47.781Z,27.6
2018-09-01T04:56:47.015Z,27.6
2018-09-01T05:06:46.258Z,27.6
2018-09-01T05:16:45.493Z,27.6
2018-09-01T05:26:44.734Z,27.6
2018-09-01T05:36:43.985Z,27.6
2018-09-01T05:46:43.212Z,27.6
2018-09-01T05:56:42.442Z,27.6
2018-09-01T06:06:41.681Z,27.6
2018-09-01T06:16:40.920Z,27.6
2018-09-01T06:26:40.157Z,27.4
2018-09-01T06:36:39.398Z,27.4
2018-09-01T06:46:38.639Z,27.1
2018-09-01T06:56:37.870Z,27.1
2018-09-01T07:06:37.109Z,27
2018-09-01T07:16:36.400Z,27
2018-09-01T07:26:35.592Z,27
2018-09-01T07:36:34.822Z,27.1
2018-09-01T07:46:34.059Z,27.1
2018-09-01T07:56:33.299Z,27.1
2018-09-01T08:06:32.544Z,27.1
2018-09-01T08:16:31.775Z,27.2
2018-09-01T08:26:31.017Z,27.2
2018-09-01T08:36:30.255Z,27.2
2018-09-01T08:46:29.542Z,27.3
2018-09-01T08:56:28.765Z,27.3
2018-09-01T09:06:27.973Z,27.3
2018-09-01T09:16:27.220Z,27.4
2018-09-01T09:26:26.457Z,27.4
2018-09-01T09:36:25.705Z,27.4
2018-09-01T09:46:24.937Z,27.4
2018-09-01T09:56:24.178Z,27.4
2018-09-01T10:06:23.424Z,27.4
2018-09-01T10:16:22.667Z,27.4
2018-09-01T10:26:21.910Z,27.4
2018-09-01T10:36:21.146Z,27.4
2018-09-01T10:46:20.393Z,27.5
2018-09-01T10:56:19.637Z,27.5
2018-09-01T11:06:18.878Z,27.6
2018-09-01T11:16:18.115Z,27.5
2018-09-01T11:26:17.364Z,27.4
2018-09-01T11:36:16.604Z,27.4
2018-09-01T11:46:15.837Z,27.4
2018-09-01T11:56:15.078Z,27.3
2018-09-01T12:06:14.323Z,27.3
2018-09-01T12:16:13.564Z,27.4
2018-09-01T12:26:12.798Z,27.3
2018-09-01T12:36:12.096Z,27.4
2018-09-01T12:46:11.281Z,27.4
2018-09-01T12:56:10.525Z,27.4
2018-09-01T13:06:09.772Z,27.5
2018-09-01T13:16:09.012Z,27.5
2018-09-01T13:26:08.252Z,27.5
2018-09-01T13:36:07.497Z,27.6
2018-09-01T13:46:06.801Z,27.5
2018-09-01T13:56:05.980Z,27.6
2018-09-01T14:06:05.222Z,27.6
2018-09-01T14:16:04.468Z,27.6
2018-09-01T14:26:03.709Z,27.6
2018-09-01T14:36:04.077Z,27.6
2018-09-01T14:46:02.193Z,27.6
2018-09-01T14:56:01.433Z,27.6
2018-09-01T15:06:00.671Z,27.6
2018-09-01T15:15:59.914Z,27.6
2018-09-01T15:25:59.157Z,27.6
2018-09-01T15:35:58.395Z,27.6
2018-09-01T15:45:57.635Z,27.6
2018-09-01T15:55:56.873Z,27.6
2018-09-01T16:05:56.112Z,27.6
2018-09-01T16:15:55.411Z,27.6
2018-09-01T16:25:54.597Z,27.6
2018-09-01T16:35:53.835Z,27.6
2018-09-01T16:45:53.076Z,27.6
2018-09-01T16:55:52.312Z,27.6
2018-09-01T17:05:51.607Z,27.6
2018-09-01T17:15:50.797Z,27.6
2018-09-01T17:25:50.040Z,27.6
2018-09-01T17:35:49.280Z,27.4
2018-09-01T17:45:48.520Z,27.3
2018-09-01T17:55:47.772Z,27.2
2018-09-01T18:05:47.005Z,27.1
2018-09-01T18:15:46.248Z,27.1
2018-09-01T18:25:45.495Z,27
2018-09-01T18:35:44.747Z,27
2018-09-01T18:45:43.989Z,26.9
2018-09-01T18:55:43.218Z,26.9
2018-09-01T19:05:42.464Z,27.1
2018-09-01T19:15:41.706Z,27.2
2018-09-01T19:25:41.004Z,27.3
2018-09-01T19:35:40.186Z,27.3
2018-09-01T19:45:39.487Z,27.3
2018-09-01T19:55:38.666Z,27.3
2018-09-01T20:05:37.910Z,27.3
2018-09-01T20:15:37.148Z,27.4
2018-09-01T20:25:36.390Z,27.4
2018-09-01T20:35:35.629Z,27.4
2018-09-01T20:45:34.868Z,27.4
2018-09-01T20:55:34.112Z,27.4
2018-09-01T21:05:33.356Z,27.5
2018-09-01T21:15:32.592Z,27.5
2018-09-01T21:25:31.834Z,27.5
2018-09-01T21:35:31.079Z,27.6
2018-09-01T21:45:30.361Z,27.6
2018-09-01T21:55:29.548Z,27.6
2018-09-01T22:05:28.792Z,27.6
2018-09-01T22:15:28.027Z,27.6
2018-09-01T22:25:27.267Z,27.6
2018-09-01T22:35:26.511Z,27.6
2018-09-01T22:45:25.751Z,27.7
2018-09-01T22:55:24.991Z,27.7
2018-09-01T23:05:24.231Z,27.6
2018-09-01T23:15:23.478Z,27.6
2018-09-01T23:25:22.715Z,27.6
2018-09-01T23:35:21.957Z,27.6
2018-09-01T23:45:21.194Z,27.6
2018-09-01T23:55:20.429Z,27.6
